Powhatan, AR

9:43 AM CDT on March 30, 2015 (GMT -0500)
Newport | | Change Station
CLOSE
Current Station
Airport
Location: Newport,
Elevation: 240 ft
Nearby Weather Stations
Active Advisory: Flood Warning Active Notice: Record Report

Elev 240 ft 35.64 °N, 91.17 °W | Updated 47 minutes ago

Clear
Clear
55 °F
Feels Like 55 °F
N
5
Wind Variable Wind from NNW

Today
High -- | Low -- °F
--% Chance of Precip.
Yesterday
High -- | Low -- °F
Precip. -- in
6:54 AM 7:24 PM
Waxing Gibbous, 80% visible
Pressure 30.26 in
Visibility 10.0 miles
Clouds Clear
Dew Point 45 °F
Humidity 69%
Rainfall 0.00 in
Snow Depth Not available.
UV 2 out of 12
Pollen 10.20 out of 12
Air Quality Not available.
Flu Activity Not available.
METAR KM19 301356Z AUTO 33004KT 10SM CLR 13/07 A3026 RMK AO2 T01270072 SLP246

More Conditions Fewer Conditions

Pressure 30.26 in
Visibility 10.0 miles
Clouds Clear
Dew Point 45 °F
Humidity 69%
Rainfall 0.00 in
Snow Depth Not available.
UV 2 out of 12
Pollen 10.20 out of 12
Air Quality Not available.
Flu Activity Not available.
METAR KM19 301356Z AUTO 33004KT 10SM CLR 13/07 A3026 RMK AO2 T01270072 SLP246

More Conditions Fewer Conditions

10-Day Weather Forecast

Almanac

Astronomy

Mar. 30, 2015 Rise Set
Actual Time
Civil Twilight
Nautical Twilight
Astronomical Twilight
Moon
Length of Visible Light
Length of Day
Tomorrow will be .
, % of the Moon is Illuminated

Today's Extremes

State Highs State Lows

Community

WunderPhotos

Upload Photos

1,809,509 photos uploaded!

WunderBlogs® & News

Nearby

Air Quality

  Air Quality AQ Index Pollutant
Not available.

Snow Depth

Station Depth Elevation

Earthquake Activity

City Distance Mag. Time & Date
Minimum magnitude displayed is 2.5.

Coastal Water Temperatures

Place Temperature

Stations

Nearby Weather Stations

Station Location Temp. Windchill Dew Point Humidity Wind Precip. Elev Updated Type
                   
Flood Warning
Statement as of 9:42 AM CDT on March 30, 2015

The Flood Warning continues for
the Black River at Black Rock.
* Until further notice... or until the warning is cancelled.
* At 9:00 am Monday the stage was 20.2 feet.
* Minor flooding is occurring and minor flooding is forecast.
* Flood stage is 14.0 feet.
* Forecast... the river will continue to fall to a stage of 20.1 feet
by Tuesday morning.
* Impacts at 20.0 feet... agricultural land is flooding along both
banks of the river in Lawrence, Independence, and Jackson counties.
Minor flooding in Powhatan community and courthouse State Park.




             Fld observed forecast 7 am
location stg stg day time Tue Wed Thu Fri Sat

Black River
Black Rock 14 20.2 Mon 09 am 20.1 19.8 19.6 19.3 19.0




Lat... Lon 3570 9140 3591 9125 3612 9115 3610 9101
3588 9110 3564 9128